createdAt,value
2023-02-14T00:00:42.782Z,7.10
2023-02-14T00:04:25.779Z,7.10
2023-02-14T00:08:08.278Z,7.10
2023-02-14T00:11:50.398Z,7.10
2023-02-14T00:15:32.346Z,7.10
2023-02-14T00:19:19.808Z,7.00
2023-02-14T00:23:01.868Z,7.00
2023-02-14T00:26:44.274Z,7.00
2023-02-14T00:30:26.476Z,7.00
2023-02-14T00:34:09.637Z,6.90
2023-02-14T00:37:51.630Z,6.90
2023-02-14T00:41:33.872Z,6.80
2023-02-14T00:45:19.057Z,6.80
2023-02-14T00:49:00.967Z,6.80
2023-02-14T00:52:42.929Z,6.80
2023-02-14T00:56:24.859Z,6.80
2023-02-14T01:00:07.514Z,6.80
2023-02-14T01:03:49.493Z,6.70
2023-02-14T01:07:31.507Z,6.70
2023-02-14T01:11:18.983Z,6.70
2023-02-14T01:15:00.926Z,6.50
2023-02-14T01:18:44.118Z,6.50
2023-02-14T01:22:26.102Z,6.40
2023-02-14T01:26:08.899Z,6.40
2023-02-14T01:29:50.907Z,6.30
2023-02-14T01:33:32.862Z,6.20
2023-02-14T01:37:15.026Z,6.10
2023-02-14T01:40:57.169Z,6.10
2023-02-14T01:44:39.183Z,6.10
2023-02-14T01:48:22.932Z,6.10
2023-02-14T01:52:17.932Z,6.10
2023-02-14T01:56:10.216Z,6.20
2023-02-14T01:59:56.591Z,6.20
2023-02-14T02:03:49.539Z,6.20
2023-02-14T02:07:31.516Z,6.20
2023-02-14T02:11:13.426Z,6.00
2023-02-14T02:14:56.415Z,5.70
2023-02-14T02:19:16.731Z,5.40
2023-02-14T02:23:28.796Z,5.20
2023-02-14T02:27:39.422Z,5.10
2023-02-14T02:31:53.514Z,5.10
2023-02-14T02:36:00.815Z,5.20
2023-02-14T02:39:49.621Z,5.20
2023-02-14T02:44:14.042Z,5.10
2023-02-14T02:48:09.993Z,5.10
2023-02-14T02:52:15.427Z,5.30
2023-02-14T02:56:37.147Z,5.30
2023-02-14T03:00:20.587Z,5.30
2023-02-14T03:04:30.231Z,5.30
2023-02-14T03:08:12.183Z,5.40
2023-02-14T03:12:07.291Z,5.40
2023-02-14T03:16:04.193Z,5.50
2023-02-14T03:20:15.419Z,5.70
2023-02-14T03:24:16.216Z,5.80
2023-02-14T03:28:20.659Z,5.80
2023-02-14T03:32:11.921Z,5.70
2023-02-14T03:36:09.037Z,5.60
2023-02-14T03:40:03.447Z,5.70
2023-02-14T03:44:17.942Z,5.80
2023-02-14T03:48:05.427Z,5.90
2023-02-14T03:51:50.863Z,5.90
2023-02-14T03:55:51.360Z,5.90
2023-02-14T03:59:33.352Z,5.80
2023-02-14T04:03:18.224Z,5.90
2023-02-14T04:07:00.259Z,5.90
2023-02-14T04:10:43.608Z,6.10
2023-02-14T04:14:29.487Z,6.20
2023-02-14T04:18:29.716Z,6.10
2023-02-14T04:22:11.709Z,6.10
2023-02-14T04:25:53.722Z,6.00
2023-02-14T04:29:37.288Z,6.10
2023-02-14T04:33:19.258Z,6.20
2023-02-14T04:37:01.252Z,6.20
2023-02-14T04:40:43.162Z,6.30
2023-02-14T04:44:25.614Z,6.30
2023-02-14T04:48:07.526Z,6.30
2023-02-14T04:51:49.527Z,6.30
2023-02-14T04:55:31.587Z,6.40
2023-02-14T04:59:14.642Z,6.60
2023-02-14T05:02:56.603Z,6.60
2023-02-14T05:06:38.605Z,6.60
2023-02-14T05:10:20.648Z,6.50
2023-02-14T05:14:02.704Z,6.60
2023-02-14T05:17:44.768Z,6.70
2023-02-14T05:21:28.036Z,6.80
2023-02-14T05:25:10.234Z,6.80
2023-02-14T05:28:52.189Z,7.00
2023-02-14T05:32:34.165Z,7.10
2023-02-14T05:36:16.150Z,7.20
2023-02-14T05:39:58.132Z,7.30
2023-02-14T05:43:40.102Z,7.30
2023-02-14T05:47:22.090Z,7.40
2023-02-14T05:51:08.802Z,7.50
2023-02-14T05:54:51.245Z,7.50
2023-02-14T05:58:33.409Z,7.60
2023-02-14T06:02:16.082Z,7.60
2023-02-14T06:05:58.149Z,7.70
2023-02-14T06:09:40.100Z,7.80
2023-02-14T06:13:22.104Z,7.80
2023-02-14T06:17:04.125Z,7.80
2023-02-14T06:20:46.164Z,7.80
2023-02-14T06:24:28.164Z,7.90
2023-02-14T06:28:10.162Z,7.90
2023-02-14T06:31:52.287Z,7.90
2023-02-14T06:35:34.286Z,7.90
2023-02-14T06:39:16.251Z,8.00
2023-02-14T06:42:58.206Z,8.00
2023-02-14T06:46:40.235Z,8.00
2023-02-14T06:50:22.542Z,8.00
2023-02-14T06:54:04.569Z,8.10
2023-02-14T06:57:46.522Z,8.10
2023-02-14T07:01:28.557Z,8.10
2023-02-14T07:05:10.563Z,8.10
2023-02-14T07:08:52.542Z,8.10
2023-02-14T07:12:35.022Z,8.10
2023-02-14T07:16:17.237Z,8.10
2023-02-14T07:19:59.205Z,8.00
2023-02-14T07:23:41.252Z,8.00
2023-02-14T07:27:23.201Z,7.90
2023-02-14T07:31:05.553Z,7.90
2023-02-14T07:34:48.288Z,7.80
2023-02-14T07:38:30.678Z,7.80
2023-02-14T07:42:12.994Z,7.70
2023-02-14T07:45:55.022Z,7.70
2023-02-14T07:49:37.085Z,7.60
2023-02-14T07:53:19.058Z,7.60
2023-02-14T07:57:01.040Z,7.60
2023-02-14T08:00:43.288Z,7.50
2023-02-14T08:21:47.844Z,7.60
2023-02-14T08:25:29.661Z,7.60
2023-02-14T08:29:11.444Z,7.60
2023-02-14T08:32:53.625Z,7.60
2023-02-14T08:36:35.670Z,7.60
2023-02-14T08:40:17.544Z,7.60
2023-02-14T08:43:59.519Z,7.60
2023-02-14T08:47:41.257Z,7.60
2023-02-14T08:51:23.122Z,7.60
2023-02-14T08:55:05.367Z,7.70
2023-02-14T08:58:47.347Z,7.70
2023-02-14T09:02:29.235Z,7.70
2023-02-14T09:06:14.548Z,7.70
2023-02-14T09:09:56.275Z,7.80
2023-02-14T09:13:38.085Z,7.90
2023-02-14T09:17:20.036Z,8.00
2023-02-14T09:21:02.824Z,8.10
2023-02-14T09:24:44.975Z,8.20
2023-02-14T09:28:26.724Z,8.30
2023-02-14T09:32:08.575Z,8.40
2023-02-14T09:35:50.365Z,8.40
2023-02-14T09:39:32.131Z,8.50
2023-02-14T09:43:16.775Z,8.50
2023-02-14T09:47:06.535Z,8.50
2023-02-14T09:50:59.588Z,8.60
2023-02-14T09:54:45.416Z,8.70
2023-02-14T09:58:59.127Z,8.80
2023-02-14T10:03:14.742Z,8.90
2023-02-14T10:07:09.348Z,8.90
2023-02-14T10:11:03.885Z,8.90
2023-02-14T10:14:45.977Z,8.90
2023-02-14T10:18:53.747Z,9.00
2023-02-14T10:22:46.320Z,9.00
2023-02-14T10:26:40.033Z,9.10
2023-02-14T10:30:23.686Z,9.10
2023-02-14T10:34:13.911Z,9.20
2023-02-14T10:38:01.662Z,9.30
2023-02-14T10:41:54.190Z,9.30
2023-02-14T10:45:57.923Z,9.40
2023-02-14T10:50:06.577Z,9.40
2023-02-14T10:54:06.299Z,9.60
2023-02-14T10:57:53.336Z,9.70
2023-02-14T11:01:35.483Z,9.80
2023-02-14T11:05:24.731Z,9.90
2023-02-14T11:09:06.445Z,10.00
2023-02-14T11:12:48.235Z,10.10
2023-02-14T11:16:36.112Z,10.10
2023-02-14T11:20:31.293Z,10.20
2023-02-14T11:24:30.043Z,10.40
2023-02-14T11:28:16.945Z,10.60
2023-02-14T11:32:11.068Z,10.90
2023-02-14T11:35:53.726Z,11.20
2023-02-14T11:39:35.791Z,11.50
2023-02-14T11:43:19.246Z,11.80
2023-02-14T11:47:19.603Z,12.00
2023-02-14T11:51:04.908Z,12.30
2023-02-14T11:54:49.483Z,12.50
2023-02-14T11:58:38.809Z,12.90
2023-02-14T12:02:32.717Z,13.20
2023-02-14T12:06:27.801Z,13.40
2023-02-14T12:10:18.360Z,13.70
2023-02-14T12:14:00.202Z,13.90
2023-02-14T12:17:44.386Z,14.20
2023-02-14T12:21:33.807Z,14.40
2023-02-14T12:25:22.953Z,14.60
2023-02-14T12:29:20.074Z,14.80
2023-02-14T12:33:02.195Z,15.00
2023-02-14T12:36:59.471Z,15.30
2023-02-14T12:41:10.804Z,15.40
2023-02-14T12:45:17.652Z,15.60
2023-02-14T12:49:16.285Z,15.80
2023-02-14T12:53:28.506Z,16.00
2023-02-14T12:57:31.806Z,16.10
2023-02-14T13:01:38.869Z,16.30
2023-02-14T13:06:01.828Z,16.40
2023-02-14T13:10:10.748Z,16.50
2023-02-14T13:14:05.760Z,16.70
2023-02-14T13:17:53.898Z,16.80
2023-02-14T13:21:38.580Z,16.90
2023-02-14T13:25:42.814Z,16.90
2023-02-14T13:29:28.647Z,16.90
2023-02-14T13:33:27.547Z,17.20
2023-02-14T13:37:12.568Z,17.40
2023-02-14T13:40:56.382Z,17.50
2023-02-14T13:44:44.354Z,17.60
2023-02-14T13:48:28.549Z,17.60
2023-02-14T13:52:10.388Z,17.90
2023-02-14T13:55:55.886Z,18.00
2023-02-14T13:59:37.658Z,18.10
2023-02-14T14:03:28.950Z,18.20
2023-02-14T14:07:13.578Z,18.40
2023-02-14T14:11:04.173Z,18.70
2023-02-14T14:15:05.971Z,18.80
2023-02-14T14:18:48.303Z,18.80
2023-02-14T14:22:30.710Z,18.80
2023-02-14T14:26:56.534Z,18.80
2023-02-14T14:30:44.473Z,18.90
2023-02-14T14:34:28.429Z,18.90
2023-02-14T14:38:14.027Z,19.00
2023-02-14T14:42:06.820Z,19.10
2023-02-14T14:45:51.579Z,19.10
2023-02-14T14:49:34.268Z,19.00
2023-02-14T14:53:50.579Z,18.90
2023-02-14T14:57:35.246Z,18.80
2023-02-14T15:01:37.290Z,18.30
2023-02-14T15:05:35.769Z,17.60
2023-02-14T15:09:23.968Z,17.20
2023-02-14T15:13:24.665Z,17.40
2023-02-14T15:17:28.337Z,17.70
2023-02-14T15:21:10.201Z,18.10
2023-02-14T15:24:52.576Z,18.30
2023-02-14T15:28:35.764Z,18.60
2023-02-14T15:32:17.587Z,18.70
2023-02-14T15:36:06.207Z,18.90
2023-02-14T15:39:55.683Z,19.20
2023-02-14T15:43:39.416Z,19.50
2023-02-14T15:47:22.260Z,19.50
2023-02-14T15:51:06.307Z,19.50
2023-02-14T15:54:48.276Z,19.40
2023-02-14T15:58:32.573Z,19.50
2023-02-14T16:02:37.751Z,19.40
2023-02-14T16:06:38.949Z,19.40
2023-02-14T16:10:25.078Z,19.40
2023-02-14T16:14:37.627Z,19.20
2023-02-14T16:18:42.003Z,19.20
2023-02-14T16:22:38.265Z,19.10
2023-02-14T16:26:20.011Z,19.10
2023-02-14T16:30:01.784Z,18.80
2023-02-14T16:33:43.592Z,18.40
2023-02-14T16:37:33.204Z,17.80
2023-02-14T16:41:18.478Z,17.10
2023-02-14T16:45:00.312Z,16.60
2023-02-14T16:48:43.337Z,16.20
2023-02-14T16:52:28.513Z,15.80
2023-02-14T16:56:43.035Z,15.40
2023-02-14T17:00:25.977Z,15.00
2023-02-14T17:04:07.939Z,14.80
2023-02-14T17:07:49.685Z,14.60
2023-02-14T17:11:32.536Z,14.40
2023-02-14T17:15:17.977Z,14.30
2023-02-14T17:19:03.070Z,14.10
2023-02-14T17:22:45.256Z,13.90
2023-02-14T17:26:26.989Z,13.70
2023-02-14T17:30:09.089Z,13.60
2023-02-14T17:33:50.844Z,13.40
2023-02-14T17:37:32.849Z,13.20
2023-02-14T17:41:18.630Z,13.00
2023-02-14T17:45:00.454Z,12.90
2023-02-14T17:48:45.424Z,12.80
2023-02-14T17:52:29.737Z,12.60
2023-02-14T17:56:15.173Z,12.50
2023-02-14T17:59:58.538Z,12.40
2023-02-14T18:03:40.829Z,12.30
2023-02-14T18:07:23.804Z,12.10
2023-02-14T18:11:07.451Z,12.10
2023-02-14T18:14:49.313Z,12.00
2023-02-14T18:18:31.777Z,11.90
2023-02-14T18:22:13.560Z,11.90
2023-02-14T18:25:58.285Z,11.80
2023-02-14T18:29:40.004Z,11.70
2023-02-14T18:33:21.816Z,11.60
2023-02-14T18:37:04.500Z,11.60
2023-02-14T18:40:46.828Z,11.50
2023-02-14T18:44:29.247Z,11.40
2023-02-14T18:48:11.010Z,11.40
2023-02-14T18:51:52.896Z,11.40
2023-02-14T18:55:36.480Z,11.30
2023-02-14T18:59:18.421Z,11.30
2023-02-14T19:03:01.000Z,11.20
2023-02-14T19:06:43.063Z,11.10
2023-02-14T19:10:24.861Z,11.00
2023-02-14T19:14:10.908Z,10.90
2023-02-14T19:17:54.111Z,10.90
2023-02-14T19:21:36.765Z,10.80
2023-02-14T19:25:18.746Z,10.80
2023-02-14T19:29:03.096Z,10.70
2023-02-14T19:32:44.784Z,10.50
2023-02-14T19:36:26.480Z,10.40
2023-02-14T19:40:10.268Z,10.40
2023-02-14T19:43:52.722Z,10.20
2023-02-14T19:47:46.615Z,10.10
2023-02-14T19:51:35.906Z,10.10
2023-02-14T19:55:22.046Z,10.00
2023-02-14T19:59:08.998Z,9.80
2023-02-14T20:02:51.382Z,9.80
2023-02-14T20:06:33.415Z,9.80
2023-02-14T20:10:15.899Z,9.80
2023-02-14T20:13:58.485Z,9.80
2023-02-14T20:17:40.188Z,9.70
2023-02-14T20:21:24.161Z,9.60
2023-02-14T20:25:06.409Z,9.60
2023-02-14T20:28:49.160Z,9.60
2023-02-14T20:32:31.585Z,9.50
2023-02-14T20:36:13.884Z,9.50
2023-02-14T20:39:55.738Z,9.50
2023-02-14T20:43:38.822Z,9.40
2023-02-14T20:47:20.526Z,9.40
2023-02-14T20:51:12.491Z,9.30
2023-02-14T20:54:54.181Z,9.30
2023-02-14T20:58:37.455Z,9.30
2023-02-14T21:02:19.195Z,9.30
2023-02-14T21:06:01.647Z,9.20
2023-02-14T21:09:43.481Z,9.10
2023-02-14T21:13:25.332Z,9.00
2023-02-14T21:17:07.118Z,9.00
2023-02-14T21:20:50.798Z,8.90
2023-02-14T21:24:32.635Z,8.80
2023-02-14T21:28:14.633Z,8.80
2023-02-14T21:31:56.444Z,8.80
2023-02-14T21:35:38.352Z,8.70
2023-02-14T21:39:25.380Z,8.70
2023-02-14T21:43:07.111Z,8.70
2023-02-14T21:46:48.785Z,8.70
2023-02-14T21:50:30.515Z,8.70
2023-02-14T21:54:12.580Z,8.70
2023-02-14T21:57:54.276Z,8.60
2023-02-14T22:01:38.602Z,8.60
2023-02-14T22:05:20.396Z,8.60
2023-02-14T22:09:02.166Z,8.50
2023-02-14T22:12:43.920Z,8.50
2023-02-14T22:16:25.812Z,8.40
2023-02-14T22:20:10.229Z,8.40
2023-02-14T22:23:53.188Z,8.40
2023-02-14T22:27:39.907Z,8.30
2023-02-14T22:31:22.108Z,8.30
2023-02-14T22:35:04.034Z,8.30
2023-02-14T22:38:45.761Z,8.30
2023-02-14T22:42:27.548Z,8.20
2023-02-14T22:46:12.378Z,8.20
2023-02-14T22:49:54.121Z,8.20
2023-02-14T22:53:36.489Z,8.20
2023-02-14T22:57:20.714Z,8.20
2023-02-14T23:01:04.410Z,8.10
2023-02-14T23:04:46.131Z,8.10
2023-02-14T23:08:27.894Z,8.10
2023-02-14T23:12:29.565Z,8.10
2023-02-14T23:16:29.865Z,8.00
2023-02-14T23:20:30.289Z,8.00
2023-02-14T23:24:11.974Z,8.00
2023-02-14T23:27:53.700Z,7.90
2023-02-14T23:31:35.585Z,7.80
2023-02-14T23:35:17.446Z,7.80
2023-02-14T23:38:59.135Z,7.70
2023-02-14T23:42:40.852Z,7.70
2023-02-14T23:46:22.908Z,7.70
2023-02-14T23:50:04.948Z,7.70
2023-02-14T23:53:46.746Z,7.70
2023-02-14T23:57:28.612Z,7.60
